Corinth, Texas
Current Conditions -  °F | °C
As of 5:53 PM on Friday 31 Oct 2014 (Local Time) from KDTO Reporting Station
Clear Clear  
Wind Chill: 62°   Ceiling: Unl
Heat Index: 62°   Visibility: 10mi
Dew Point: 37°   Wind: 10mph
Humidity: 39%   Direction: 10°N
Pressure: 30.31"   Gusts: NA
Location:  33.1457°N, 97.0902°W
Report Text: KDTO 312253Z 01009KT 10SM CLR 17/03 A3031 RMK AO2 SLP261 T01670028
Loading
Personal Weather Stations






























Interactive Weather Map
Tropical Storm Tracking
New forecast layout! Learn more

10-Day Weather Forecast

Advertisements
Track Severe Weather on mobile